Terminal Aerodrome Forecast
Issued by NWS

Home | Current Version | Previous Version | Text Only | Print | Product List | Glossary On
Versions: 1 2 3 4 5 6 7 8 9 10 11 12 13 14 15 16
000
FTUS43 KGRR 292041 AAA
TAFJXN
TAF AMD
KJXN 292041Z 2921/3018 28011G20KT P6SM FEW025 BKN035
     FM300000 27005KT P6SM SKC
     FM301400 29012G21KT P6SM SKC=

USA.gov is the U.S. government's official web portal to all federal, state and local government web resources and services.